Terminal Aerodrome Forecast
Issued by NWS

Home | Current Version | Previous Version | Text Only | Print | Product List | Glossary On
Versions: 1 2 3 4 5 6 7 8 9 10 11 12 13
000
FTUS42 KFFC 061124
TAFPDK
TAF
KPDK 061124Z 0612/0712 00000KT P6SM SKC
     FM061700 10004KT P6SM FEW050
     FM062300 15003KT P6SM SKC
     FM070000 00000KT P6SM SKC=

USA.gov is the U.S. government's official web portal to all federal, state and local government web resources and services.